Time;durP1;ratioP1;P1;durP2;ratioP2;P2;SDS_P1;SDS_P2;PMS_P1;PMS_P2;Temp;Humidity;BMP_temperature;BMP_pressure;BME280_temperature;BME280_humidity;BME280_pressure;Samples;Min_cycle;Max_cycle;Signal;HPM_P1;HPM_P2
2023/04/11 00:00:32;;;;;;;118.00;113.00;;;8.50;99.90;;;;;;5069237;28;20126;-70
2023/04/11 00:03:00;;;;;;;109.28;104.72;;;8.40;99.90;;;;;;5087573;28;20070;-70
2023/04/11 00:05:31;;;;;;;110.95;106.20;;;8.40;99.90;;;;;;5087562;28;20075;-70
2023/04/11 00:07:57;;;;;;;107.68;102.50;;;8.30;99.90;;;;;;5121812;27;20080;-70
2023/04/11 00:10:23;;;;;;;121.13;115.15;;;8.30;99.90;;;;;;5089812;27;20039;-70
2023/04/11 00:12:48;;;;;;;101.75;97.07;;;8.20;99.90;;;;;;5086816;28;20104;-70
2023/04/11 00:15:15;;;;;;;103.32;98.40;;;8.30;99.90;;;;;;5070271;28;20039;-70
2023/04/11 00:17:44;;;;;;;106.15;100.88;;;8.20;99.90;;;;;;5120384;27;20051;-70
2023/04/11 00:20:11;;;;;;;102.32;97.75;;;8.20;99.90;;;;;;5106005;27;20043;-70
2023/04/11 00:22:37;;;;;;;99.75;94.57;;;8.10;99.90;;;;;;5073550;28;20070;-70
2023/04/11 00:25:04;;;;;;;101.50;96.70;;;8.10;99.90;;;;;;5073860;27;20035;-70
2023/04/11 00:27:30;;;;;;;102.70;97.80;;;8.00;99.90;;;;;;5069869;28;20075;-70
2023/04/11 00:29:56;;;;;;;100.40;95.53;;;7.90;99.90;;;;;;5086856;28;20201;-70
2023/04/11 00:32:23;;;;;;;106.15;100.93;;;7.80;99.90;;;;;;5088889;28;20043;-70
2023/04/11 00:34:49;;;;;;;112.65;107.32;;;7.80;99.90;;;;;;5088874;28;20043;-70
2023/04/11 00:37:16;;;;;;;112.38;107.18;;;7.70;99.90;;;;;;5119582;27;20506;-70
2023/04/11 00:39:43;;;;;;;108.05;103.13;;;7.70;99.90;;;;;;5091021;28;20457;-70
2023/04/11 00:42:10;;;;;;;114.00;108.88;;;7.60;99.90;;;;;;5105111;28;20039;-70
2023/04/11 00:44:36;;;;;;;108.20;102.40;;;7.50;99.90;;;;;;5072015;28;20046;-70
2023/04/11 00:47:05;;;;;;;110.60;104.95;;;7.50;99.90;;;;;;5089887;28;20080;-70
2023/04/11 00:49:31;;;;;;;96.70;91.95;;;7.50;99.90;;;;;;5074155;28;20059;-70
2023/04/11 00:51:58;;;;;;;94.00;88.90;;;7.50;99.90;;;;;;5088090;28;20116;-70
2023/04/11 00:54:29;;;;;;;93.93;89.25;;;7.50;99.90;;;;;;5087208;28;20511;-69
2023/04/11 00:56:59;;;;;;;93.47;88.55;;;7.40;99.90;;;;;;5089461;28;20383;-70
2023/04/11 00:59:27;;;;;;;95.65;90.38;;;7.40;99.90;;;;;;5122773;27;20390;-70
2023/04/11 01:01:53;;;;;;;95.03;89.93;;;7.30;99.90;;;;;;5089082;28;20039;-70
2023/04/11 01:04:20;;;;;;;96.72;92.05;;;7.30;99.90;;;;;;5085906;28;20538;-70
2023/04/11 01:06:51;;;;;;;94.20;89.35;;;7.30;99.90;;;;;;5090125;28;22357;-71
2023/04/11 01:09:20;;;;;;;99.82;94.43;;;7.20;99.90;;;;;;5067921;28;20035;-70
2023/04/11 01:11:47;;;;;;;90.47;85.47;;;7.20;99.90;;;;;;5120119;27;20047;-70
2023/04/11 01:14:14;;;;;;;88.53;83.78;;;7.10;99.90;;;;;;5086250;28;20074;-71
2023/04/11 01:16:40;;;;;;;92.07;86.88;;;7.10;99.90;;;;;;5070174;28;20505;-70
2023/04/11 01:19:06;;;;;;;91.03;85.78;;;7.00;99.90;;;;;;5087778;27;20083;-70
2023/04/11 01:21:32;;;;;;;89.78;84.95;;;7.00;99.90;;;;;;5089899;28;20039;-70
2023/04/11 01:24:02;;;;;;;89.93;85.30;;;7.10;99.90;;;;;;5080002;27;20368;-70
2023/04/11 01:26:28;;;;;;;91.07;86.72;;;7.20;99.90;;;;;;5122617;27;20150;-70
2023/04/11 01:28:54;;;;;;;83.65;79.38;;;7.20;99.90;;;;;;5072085;27;20062;-70
2023/04/11 01:31:19;;;;;;;78.07;73.95;;;7.40;99.90;;;;;;5088377;28;20043;-70
2023/04/11 01:33:46;;;;;;;71.78;68.45;;;7.50;99.90;;;;;;5096479;27;20502;-70
2023/04/11 01:36:12;;;;;;;83.15;79.18;;;7.50;99.90;;;;;;5089595;28;20178;-69
2023/04/11 01:38:37;;;;;;;68.32;64.82;;;7.60;99.90;;;;;;5095210;28;20559;-70
2023/04/11 01:41:04;;;;;;;66.15;62.67;;;7.60;99.90;;;;;;5089380;28;20068;-70
2023/04/11 01:43:30;;;;;;;108.75;102.72;;;7.60;99.90;;;;;;5101347;28;20027;-69
2023/04/11 01:45:56;;;;;;;68.65;65.15;;;7.70;99.90;;;;;;5089910;27;20538;-70
2023/04/11 01:48:21;;;;;;;307.05;281.33;;;7.70;99.90;;;;;;5108355;27;20062;-70
2023/04/11 01:50:47;;;;;;;97.63;93.60;;;7.70;99.90;;;;;;5092571;27;20046;-69
2023/04/11 01:53:12;;;;;;;118.38;112.38;;;7.70;99.90;;;;;;5089698;27;20356;-70
2023/04/11 01:55:38;;;;;;;61.20;58.40;;;7.80;99.90;;;;;;5091584;28;20039;-70
2023/04/11 01:58:04;;;;;;;58.97;56.20;;;7.70;99.90;;;;;;5074890;28;20112;-70
2023/04/11 02:00:29;;;;;;;197.95;185.07;;;7.70;99.90;;;;;;5087059;28;20099;-70
2023/04/11 02:02:55;;;;;;;80.85;77.18;;;7.70;99.90;;;;;;5106869;27;20087;-70
2023/04/11 02:05:21;;;;;;;87.38;83.45;;;7.70;99.90;;;;;;5092540;27;20042;-70
2023/04/11 02:07:46;;;;;;;86.70;83.10;;;7.70;99.90;;;;;;5090814;28;20475;-71
2023/04/11 02:10:12;;;;;;;55.65;53.00;;;7.70;99.90;;;;;;5091814;28;20554;-70
2023/04/11 02:12:37;;;;;;;65.20;62.30;;;7.70;99.90;;;;;;5074376;28;20035;-70
2023/04/11 02:15:03;;;;;;;48.47;46.25;;;7.70;99.90;;;;;;5103988;27;20039;-70
2023/04/11 02:17:29;;;;;;;50.55;48.03;;;7.60;99.90;;;;;;5090094;28;20035;-69
2023/04/11 02:19:56;;;;;;;57.25;54.50;;;7.60;99.90;;;;;;5090431;27;20051;-70
2023/04/11 02:22:22;;;;;;;68.68;65.57;;;7.60;99.90;;;;;;5093700;27;20426;-70
2023/04/11 02:24:50;;;;;;;46.45;44.15;;;7.60;99.90;;;;;;5091000;28;20043;-70
2023/04/11 02:27:15;;;;;;;75.35;71.72;;;7.60;99.90;;;;;;5089445;27;20044;-69
2023/04/11 02:29:41;;;;;;;47.97;45.78;;;7.60;99.90;;;;;;5125211;27;20805;-70
2023/04/11 02:32:07;;;;;;;65.40;62.22;;;7.60;99.90;;;;;;5105212;27;20046;-69
2023/04/11 02:34:32;;;;;;;48.42;46.05;;;7.60;99.90;;;;;;5076086;28;20040;-70
2023/04/11 02:36:58;;;;;;;47.85;45.40;;;7.60;99.90;;;;;;5074876;27;20047;-69
2023/04/11 02:39:23;;;;;;;58.72;55.83;;;7.60;99.90;;;;;;5076506;27;20402;-69
2023/04/11 02:41:50;;;;;;;46.83;44.53;;;7.60;99.90;;;;;;5091423;27;20122;-70
2023/04/11 02:44:17;;;;;;;51.97;49.17;;;7.60;99.90;;;;;;5075151;28;20127;-70
2023/04/11 02:46:42;;;;;;;43.72;41.58;;;7.60;99.90;;;;;;5087259;28;20521;-69
2023/04/11 02:49:08;;;;;;;52.38;49.83;;;7.60;99.90;;;;;;5072349;27;20031;-70
2023/04/11 02:51:33;;;;;;;46.88;44.47;;;7.60;99.90;;;;;;5092697;27;20120;-70
2023/04/11 02:53:59;;;;;;;104.45;98.88;;;7.60;99.90;;;;;;5090822;28;20055;-70
2023/04/11 02:56:25;;;;;;;50.80;48.15;;;7.60;99.90;;;;;;5089362;28;20039;-70
2023/04/11 02:58:51;;;;;;;59.33;56.13;;;7.60;99.90;;;;;;5124957;27;20410;-70
2023/04/11 03:01:20;;;;;;;54.42;51.85;;;7.60;99.90;;;;;;5089225;28;20036;-70
2023/04/11 03:03:46;;;;;;;114.43;108.07;;;7.70;99.90;;;;;;5071938;28;20447;-70
2023/04/11 03:06:11;;;;;;;46.88;44.28;;;7.70;99.90;;;;;;5088262;27;20035;-70
2023/04/11 03:08:38;;;;;;;49.40;46.63;;;7.70;99.90;;;;;;5075866;27;20142;-70
2023/04/11 03:11:04;;;;;;;48.72;46.17;;;7.70;99.90;;;;;;5111691;27;20050;-70
2023/04/11 03:13:30;;;;;;;63.10;59.88;;;7.70;99.90;;;;;;5072603;28;20043;-70
2023/04/11 03:15:55;;;;;;;51.47;48.88;;;7.60;99.90;;;;;;5088572;28;20085;-70
2023/04/11 03:18:22;;;;;;;63.15;59.58;;;7.70;99.90;;;;;;5086962;28;20394;-70
2023/04/11 03:20:48;;;;;;;60.83;57.78;;;7.60;99.90;;;;;;5071107;28;20062;-70
2023/04/11 03:23:14;;;;;;;98.35;93.60;;;7.60;99.90;;;;;;5088774;28;20116;-70
2023/04/11 03:25:40;;;;;;;62.10;59.00;;;7.60;99.90;;;;;;5090389;27;20063;-70
2023/04/11 03:28:06;;;;;;;64.53;61.42;;;7.50;99.90;;;;;;5087291;28;20046;-70
2023/04/11 03:30:32;;;;;;;70.65;67.07;;;7.50;99.90;;;;;;5088768;28;20587;-70
2023/04/11 03:33:01;;;;;;;62.85;59.63;;;7.50;99.90;;;;;;5087430;27;20040;-70
2023/04/11 03:35:27;;;;;;;64.78;61.30;;;7.60;99.90;;;;;;5093800;27;20180;-70
2023/04/11 03:37:53;;;;;;;73.80;70.07;;;7.60;99.90;;;;;;5092575;28;20055;-70
2023/04/11 03:40:18;;;;;;;69.30;65.72;;;7.60;99.90;;;;;;5090798;28;20158;-70
2023/04/11 03:42:48;;;;;;;64.68;61.38;;;7.60;99.90;;;;;;5088690;28;20130;-70
2023/04/11 03:45:14;;;;;;;99.88;94.85;;;7.60;99.90;;;;;;5074983;28;20536;-70
2023/04/11 03:47:40;;;;;;;67.55;64.20;;;7.80;99.90;;;;;;5090128;28;20039;-70
2023/04/11 03:50:06;;;;;;;66.40;62.95;;;7.80;99.90;;;;;;5087319;28;20031;-70
2023/04/11 03:52:32;;;;;;;98.15;92.82;;;7.80;99.90;;;;;;5087631;28;20045;-70
2023/04/11 03:54:58;;;;;;;80.30;76.13;;;7.80;99.90;;;;;;5070829;27;20048;-70
2023/04/11 03:57:27;;;;;;;88.18;83.35;;;7.90;99.90;;;;;;5071657;28;20395;-70
2023/04/11 03:59:54;;;;;;;88.05;83.93;;;8.00;99.90;;;;;;5085097;28;20039;-70
2023/04/11 04:02:19;;;;;;;111.57;105.43;;;8.00;99.90;;;;;;5086359;28;20057;-70
2023/04/11 04:04:47;;;;;;;72.45;68.93;;;8.00;99.90;;;;;;5122181;27;20040;-70
2023/04/11 04:07:13;;;;;;;91.85;87.57;;;8.10;99.90;;;;;;5073180;27;20034;-70
2023/04/11 04:09:42;;;;;;;99.68;94.97;;;8.10;99.90;;;;;;5085174;28;20062;-70
2023/04/11 04:12:08;;;;;;;88.30;84.05;;;8.10;99.90;;;;;;5084937;28;20031;-70
2023/04/11 04:14:33;;;;;;;102.10;97.50;;;8.10;99.90;;;;;;5090438;28;20043;-70
2023/04/11 04:16:59;;;;;;;94.60;89.82;;;8.10;99.90;;;;;;5087645;27;20039;-70
2023/04/11 04:19:25;;;;;;;99.93;94.97;;;8.10;99.90;;;;;;5071558;28;20051;-70
2023/04/11 04:21:50;;;;;;;75.15;71.18;;;8.00;99.90;;;;;;5069928;28;20044;-70
2023/04/11 04:24:16;;;;;;;93.47;88.53;;;8.00;99.90;;;;;;5106474;27;20392;-70
2023/04/11 04:26:42;;;;;;;120.13;114.22;;;8.00;99.90;;;;;;5089904;28;20035;-70
2023/04/11 04:29:08;;;;;;;404.73;361.95;;;7.90;99.90;;;;;;5078988;28;20456;-70
2023/04/11 04:31:35;;;;;;;78.65;74.82;;;8.00;99.90;;;;;;5088102;28;20152;-70
2023/04/11 04:34:08;;;;;;;88.50;84.28;;;7.90;99.90;;;;;;5087887;28;20044;-70
2023/04/11 04:36:48;;;;;;;66.18;62.78;;;8.00;99.90;;;;;;5087839;28;20051;-70
2023/04/11 04:39:18;;;;;;;82.03;77.90;;;7.90;99.90;;;;;;5087320;28;20505;-70
2023/04/11 04:41:47;;;;;;;62.70;59.10;;;7.80;99.90;;;;;;5072370;28;20066;-70
2023/04/11 04:44:14;;;;;;;70.07;66.35;;;7.80;99.90;;;;;;5090265;28;20084;-70
2023/04/11 04:46:41;;;;;;;72.88;69.00;;;7.70;99.90;;;;;;5087579;28;20042;-70
2023/04/11 04:49:07;;;;;;;122.40;115.38;;;7.60;99.90;;;;;;5091022;28;20807;-70
2023/04/11 04:51:33;;;;;;;68.63;65.28;;;7.60;99.90;;;;;;5072431;28;20276;-70
2023/04/11 04:53:59;;;;;;;96.38;91.70;;;7.60;99.90;;;;;;5088167;28;20097;-70
2023/04/11 04:56:29;;;;;;;84.90;80.93;;;7.60;99.90;;;;;;5086638;28;20039;-70
2023/04/11 04:58:55;;;;;;;334.55;307.02;;;7.60;99.90;;;;;;5082446;28;20134;-70
2023/04/11 05:01:21;;;;;;;65.28;61.78;;;7.60;99.90;;;;;;5071511;28;20114;-70
2023/04/11 05:03:49;;;;;;;62.05;58.47;;;7.60;99.90;;;;;;5089479;28;20047;-70
2023/04/11 05:06:15;;;;;;;146.68;135.85;;;7.60;99.90;;;;;;5089079;28;20118;-70
2023/04/11 05:08:41;;;;;;;99.15;93.78;;;7.60;99.90;;;;;;5086422;28;20127;-70
2023/04/11 05:11:07;;;;;;;71.95;67.97;;;7.60;99.90;;;;;;5088035;28;20065;-70
2023/04/11 05:13:33;;;;;;;139.02;132.13;;;7.60;99.90;;;;;;5086655;28;20035;-70
2023/04/11 05:15:59;;;;;;;84.72;80.70;;;7.60;99.90;;;;;;5071694;28;20391;-70
2023/04/11 05:18:25;;;;;;;82.18;77.95;;;7.60;99.90;;;;;;5090117;28;20082;-70
2023/04/11 05:20:50;;;;;;;64.47;60.83;;;7.60;99.90;;;;;;5088598;28;20660;-70
2023/04/11 05:23:16;;;;;;;67.93;64.13;;;7.60;99.90;;;;;;5101915;28;20494;-70
2023/04/11 05:25:42;;;;;;;64.90;61.08;;;7.60;99.90;;;;;;5088755;28;20374;-70
2023/04/11 05:28:07;;;;;;;295.00;274.33;;;7.70;99.90;;;;;;5084714;28;20039;-70
2023/04/11 05:30:33;;;;;;;72.93;68.97;;;7.70;99.90;;;;;;5068156;28;20055;-71
2023/04/11 05:32:58;;;;;;;83.63;78.95;;;7.80;99.90;;;;;;5085217;28;20475;-71
2023/04/11 05:35:24;;;;;;;69.78;65.95;;;7.80;99.90;;;;;;5088248;28;20035;-70
2023/04/11 05:37:50;;;;;;;69.13;65.35;;;7.80;99.90;;;;;;5087232;28;20113;-70
2023/04/11 05:40:15;;;;;;;110.40;105.03;;;7.80;99.90;;;;;;5103457;28;20065;-70
2023/04/11 05:42:41;;;;;;;74.55;70.45;;;7.90;99.90;;;;;;5070453;28;20406;-70
2023/04/11 05:45:07;;;;;;;132.80;123.57;;;7.90;99.90;;;;;;5085975;28;20035;-70
2023/04/11 05:47:33;;;;;;;75.03;71.18;;;7.90;99.90;;;;;;5088976;28;20046;-70
2023/04/11 05:49:59;;;;;;;109.85;104.22;;;8.00;99.90;;;;;;5087510;28;20036;-70
2023/04/11 05:52:24;;;;;;;70.60;67.30;;;8.00;99.90;;;;;;5088050;28;20097;-70
2023/04/11 05:54:50;;;;;;;189.00;177.20;;;8.00;99.90;;;;;;5085856;28;20039;-70
2023/04/11 05:57:16;;;;;;;242.02;225.70;;;8.10;99.90;;;;;;5071758;28;20035;-70
2023/04/11 05:59:42;;;;;;;100.72;95.85;;;8.10;99.90;;;;;;5088991;28;20035;-70
2023/04/11 06:02:07;;;;;;;128.02;120.85;;;8.10;99.90;;;;;;5091413;28;20085;-70
2023/04/11 06:04:33;;;;;;;282.02;265.75;;;8.10;99.90;;;;;;5082156;28;20067;-70
2023/04/11 06:06:59;;;;;;;107.45;101.68;;;8.10;99.90;;;;;;5068382;28;20131;-70
2023/04/11 06:09:25;;;;;;;172.68;164.18;;;8.10;99.90;;;;;;5085229;28;20031;-70
2023/04/11 06:11:51;;;;;;;72.40;68.68;;;8.10;99.90;;;;;;5072487;28;20455;-70
2023/04/11 06:14:16;;;;;;;141.15;134.57;;;8.10;99.90;;;;;;5089253;27;20112;-70
2023/04/11 06:16:42;;;;;;;364.58;341.45;;;8.20;99.90;;;;;;5077237;28;20050;-70
2023/04/11 06:19:08;;;;;;;356.98;336.77;;;8.20;99.90;;;;;;5092057;27;20046;-70
2023/04/11 06:21:34;;;;;;;209.00;196.55;;;8.20;99.90;;;;;;5087847;28;20042;-70
2023/04/11 06:24:08;;;;;;;170.25;162.23;;;8.30;99.90;;;;;;5107111;27;20510;-70
2023/04/11 06:26:34;;;;;;;149.73;142.98;;;8.30;99.90;;;;;;5091445;28;20054;-70
2023/04/11 06:29:02;;;;;;;305.27;283.27;;;8.30;99.90;;;;;;5103567;27;20047;-70
2023/04/11 06:31:28;;;;;;;165.63;156.73;;;8.40;99.90;;;;;;5088761;28;20036;-70
2023/04/11 06:33:54;;;;;;;113.55;108.20;;;8.40;99.90;;;;;;5075571;28;20046;-70
2023/04/11 06:36:20;;;;;;;288.55;268.02;;;8.40;99.90;;;;;;5087721;28;20536;-70
2023/04/11 06:38:46;;;;;;;122.18;116.30;;;8.50;99.90;;;;;;5088563;28;20096;-70
2023/04/11 06:41:11;;;;;;;145.73;138.98;;;8.50;99.90;;;;;;5089443;28;20043;-70
2023/04/11 06:43:37;;;;;;;207.93;197.98;;;8.50;99.90;;;;;;5064433;28;20478;-70
2023/04/11 06:46:02;;;;;;;176.85;167.50;;;8.60;99.90;;;;;;5090404;28;20047;-70
2023/04/11 06:48:28;;;;;;;141.15;134.48;;;8.50;99.90;;;;;;5089220;28;20031;-70
2023/04/11 06:50:54;;;;;;;339.17;315.52;;;8.60;99.90;;;;;;5073887;28;20047;-70
2023/04/11 06:53:19;;;;;;;167.20;158.90;;;8.70;99.90;;;;;;5082593;28;20043;-70
2023/04/11 06:55:48;;;;;;;162.98;155.55;;;8.70;99.90;;;;;;5091451;28;20039;-70
2023/04/11 06:58:14;;;;;;;363.05;338.30;;;8.70;99.90;;;;;;5079318;28;20075;-70
2023/04/11 07:00:40;;;;;;;129.18;123.47;;;8.70;99.90;;;;;;5088485;28;20051;-70
2023/04/11 07:03:07;;;;;;;444.65;408.08;;;8.40;99.90;;;;;;5103340;28;20471;-70
2023/04/11 07:05:36;;;;;;;257.58;243.10;;;8.20;99.90;;;;;;5087811;28;20169;-70
2023/04/11 07:08:01;;;;;;;78.55;74.20;;;8.10;99.90;;;;;;5106259;28;20063;-70
2023/04/11 07:10:27;;;;;;;74.88;71.15;;;8.00;99.90;;;;;;5080276;28;20129;-70
2023/04/11 07:12:52;;;;;;;183.27;174.80;;;8.10;99.90;;;;;;5105053;27;20032;-70
2023/04/11 07:15:18;;;;;;;193.20;182.38;;;8.20;99.90;;;;;;5073006;28;20032;-70
2023/04/11 07:17:46;;;;;;;126.25;120.50;;;8.10;99.90;;;;;;5089489;28;20395;-70
2023/04/11 07:20:11;;;;;;;194.93;184.90;;;8.00;99.90;;;;;;5072268;28;20982;-71
2023/04/11 07:22:41;;;;;;;111.93;106.35;;;7.90;99.90;;;;;;5094172;27;20510;-71
2023/04/11 07:25:07;;;;;;;159.65;150.68;;;7.90;99.90;;;;;;5089113;28;20062;-70
2023/04/11 07:27:35;;;;;;;80.40;76.35;;;8.10;99.90;;;;;;5087725;28;20126;-70
2023/04/11 07:30:03;;;;;;;70.60;67.03;;;8.30;99.90;;;;;;5081180;27;20067;-70
2023/04/11 07:32:29;;;;;;;300.35;280.40;;;8.50;99.90;;;;;;5106340;27;20068;-70
2023/04/11 07:34:55;;;;;;;259.90;245.13;;;8.70;99.90;;;;;;5089483;28;20044;-70
2023/04/11 07:37:20;;;;;;;144.90;138.05;;;8.70;99.90;;;;;;5087779;28;20104;-70
2023/04/11 07:39:47;;;;;;;180.10;171.80;;;8.80;99.90;;;;;;5086454;28;20134;-71
2023/04/11 07:42:13;;;;;;;309.73;288.50;;;9.00;99.90;;;;;;5089130;28;20046;-70
2023/04/11 07:44:38;;;;;;;222.85;211.35;;;9.10;99.90;;;;;;5090061;28;20036;-70
2023/04/11 07:47:04;;;;;;;281.50;264.60;;;9.10;99.90;;;;;;5081387;27;20475;-70
2023/04/11 07:49:30;;;;;;;126.68;120.53;;;9.20;99.90;;;;;;5089877;28;20126;-71
2023/04/11 07:51:55;;;;;;;204.35;194.15;;;9.20;99.90;;;;;;5086355;28;20039;-70
2023/04/11 07:54:23;;;;;;;113.28;107.95;;;9.10;99.90;;;;;;5089860;28;20046;-71
2023/04/11 07:56:49;;;;;;;216.95;202.40;;;9.20;99.90;;;;;;5086351;28;20392;-70
2023/04/11 07:59:15;;;;;;;316.58;292.77;;;9.20;99.90;;;;;;5073147;28;20027;-70
2023/04/11 08:01:41;;;;;;;141.77;134.20;;;9.30;99.90;;;;;;5054491;28;20048;-70
2023/04/11 08:04:07;;;;;;;90.05;85.43;;;9.50;99.90;;;;;;5081189;28;20123;-70
2023/04/11 08:06:33;;;;;;;272.27;248.80;;;9.60;99.90;;;;;;5089612;28;20081;-70
2023/04/11 08:08:59;;;;;;;95.47;90.75;;;9.60;99.90;;;;;;5073274;27;20149;-70
2023/04/11 08:11:25;;;;;;;115.15;109.68;;;9.70;99.90;;;;;;5087559;28;20048;-70
2023/04/11 08:13:51;;;;;;;170.75;158.50;;;9.80;99.90;;;;;;5088372;28;20045;-71
2023/04/11 08:16:16;;;;;;;138.45;130.85;;;10.00;99.90;;;;;;5090190;28;20608;-70
2023/04/11 08:18:44;;;;;;;78.72;74.95;;;9.90;99.90;;;;;;5069373;28;20043;-70
2023/04/11 08:21:10;;;;;;;123.60;117.03;;;9.90;99.90;;;;;;5080006;28;20423;-70
2023/04/11 08:23:38;;;;;;;80.57;76.22;;;9.90;99.90;;;;;;5101760;28;20032;-70
2023/04/11 08:26:04;;;;;;;150.43;139.45;;;10.20;99.90;;;;;;5088972;28;20422;-70
2023/04/11 08:28:30;;;;;;;64.45;60.75;;;10.20;99.90;;;;;;5085310;28;20066;-70
2023/04/11 08:30:57;;;;;;;151.77;143.30;;;10.30;99.90;;;;;;5084035;28;20047;-70
2023/04/11 08:33:24;;;;;;;98.10;93.05;;;10.30;99.90;;;;;;5089685;28;20048;-70
2023/04/11 08:35:50;;;;;;;189.30;177.93;;;10.20;99.90;;;;;;5082937;28;21205;-70
2023/04/11 08:38:15;;;;;;;66.57;63.13;;;10.40;99.90;;;;;;5070762;28;20122;-70
2023/04/11 08:40:41;;;;;;;220.27;206.88;;;10.50;99.90;;;;;;5071049;28;20118;-70
2023/04/11 08:43:10;;;;;;;124.03;117.68;;;10.60;99.90;;;;;;5085825;28;20035;-71
2023/04/11 08:45:38;;;;;;;66.07;62.28;;;10.80;99.90;;;;;;5103519;28;20039;-71
2023/04/11 08:48:05;;;;;;;69.95;65.72;;;10.80;99.90;;;;;;5084829;28;20038;-70
2023/04/11 08:50:32;;;;;;;86.75;82.78;;;10.40;99.90;;;;;;5106789;28;20521;-70
2023/04/11 08:53:01;;;;;;;74.22;70.70;;;9.60;99.90;;;;;;5096504;28;20079;-71
2023/04/11 08:55:27;;;;;;;105.28;100.53;;;8.90;99.90;;;;;;5072101;28;20040;-71
2023/04/11 08:57:55;;;;;;;155.63;148.65;;;8.60;99.90;;;;;;5087882;28;20525;-71
2023/04/11 09:00:23;;;;;;;140.27;133.50;;;9.00;99.90;;;;;;5086184;28;20066;-70
2023/04/11 09:02:59;;;;;;;138.13;131.90;;;9.30;99.90;;;;;;5087123;28;20044;-70
2023/04/11 09:05:33;;;;;;;126.85;121.18;;;9.80;99.90;;;;;;5087554;28;20050;-71
2023/04/11 09:08:05;;;;;;;126.35;120.03;;;10.30;99.90;;;;;;5071098;28;20039;-70
2023/04/11 09:10:31;;;;;;;100.50;95.65;;;10.40;99.90;;;;;;5079020;28;20477;-70
2023/04/11 09:12:57;;;;;;;96.65;91.50;;;10.10;99.90;;;;;;5087607;28;20445;-70
2023/04/11 09:15:28;;;;;;;116.68;108.47;;;9.80;99.90;;;;;;5088493;28;20423;-70
2023/04/11 09:17:55;;;;;;;57.03;53.97;;;9.60;99.90;;;;;;5086732;28;20043;-71
2023/04/11 09:20:30;;;;;;;94.72;90.03;;;9.40;99.90;;;;;;5088150;28;20457;-70
2023/04/11 09:23:00;;;;;;;58.63;55.58;;;9.90;99.90;;;;;;5080751;28;20040;-71
2023/04/11 09:25:26;;;;;;;88.90;83.97;;;10.40;99.90;;;;;;5070950;28;20042;-70
2023/04/11 09:28:07;;;;;;;104.85;99.65;;;10.70;99.90;;;;;;5087933;28;20160;-69
2023/04/11 09:30:34;;;;;;;81.43;77.10;;;10.30;99.90;;;;;;5092874;28;20044;-70
2023/04/11 09:33:19;;;;;;;96.18;91.63;;;9.70;99.90;;;;;;5086439;28;20427;-70
2023/04/11 09:35:47;;;;;;;374.45;344.80;;;9.20;99.90;;;;;;5086694;28;20535;-70
2023/04/11 09:38:13;;;;;;;170.07;160.15;;;9.50;99.90;;;;;;5086801;28;20039;-70
2023/04/11 09:40:42;;;;;;;127.82;119.32;;;10.00;99.90;;;;;;5074910;27;20134;-70
2023/04/11 09:43:08;;;;;;;100.47;95.72;;;10.40;99.90;;;;;;5091424;28;20119;-70
2023/04/11 09:45:34;;;;;;;277.60;256.83;;;10.60;99.90;;;;;;5081735;28;20518;-70
2023/04/11 09:48:00;;;;;;;107.05;101.45;;;10.60;99.90;;;;;;5125213;27;20050;-70
2023/04/11 09:50:26;;;;;;;115.55;108.25;;;10.60;99.90;;;;;;5070097;28;20031;-70
2023/04/11 09:52:54;;;;;;;101.25;96.50;;;10.40;99.90;;;;;;5089223;28;20249;-71
2023/04/11 09:55:22;;;;;;;113.68;108.28;;;10.00;99.90;;;;;;5091192;28;20035;-71
2023/04/11 09:57:53;;;;;;;86.78;82.68;;;9.70;99.90;;;;;;5108445;27;20078;-70
2023/04/11 10:00:28;;;;;;;106.68;100.57;;;9.50;99.90;;;;;;5087771;28;20516;-70
2023/04/11 10:02:55;;;;;;;57.15;53.65;;;9.40;99.90;;;;;;5088330;28;20046;-70
2023/04/11 10:05:28;;;;;;;64.10;60.60;;;9.30;99.90;;;;;;5086194;28;20078;-70
2023/04/11 10:08:06;;;;;;;126.30;119.15;;;9.10;99.90;;;;;;5088384;28;20092;-69
2023/04/11 10:10:33;;;;;;;99.07;94.07;;;8.80;99.90;;;;;;5092402;28;20067;-69
2023/04/11 10:12:59;;;;;;;86.32;82.32;;;8.50;99.90;;;;;;5079068;28;20038;-70
2023/04/11 10:15:25;;;;;;;175.15;165.15;;;8.40;99.90;;;;;;5089629;28;20437;-69
2023/04/11 10:18:08;;;;;;;222.40;207.27;;;8.20;99.90;;;;;;5086866;28;20047;-69
2023/04/11 10:20:37;;;;;;;497.85;448.58;;;7.90;99.90;;;;;;5091325;28;20046;-69
2023/04/11 10:23:03;;;;;;;163.30;152.38;;;7.70;99.90;;;;;;5066573;28;20055;-69
2023/04/11 10:25:30;;;;;;;222.85;207.98;;;7.20;99.90;;;;;;5107959;27;20066;-69
2023/04/11 10:28:00;;;;;;;307.70;289.15;;;6.60;99.90;;;;;;5105635;28;20028;-69
2023/04/11 10:30:43;;;;;;;173.80;164.10;;;6.20;99.90;;;;;;5090784;27;20114;-69
2023/04/11 10:33:11;;;;;;;100.07;95.33;;;6.10;99.90;;;;;;5091799;28;20069;-69
2023/04/11 10:36:10;;;;;;;200.63;191.15;;;6.00;99.90;;;;;;5073872;28;20043;-69
2023/04/11 10:38:47;;;;;;;176.77;167.13;;;5.90;99.90;;;;;;5027656;28;20080;-69
2023/04/11 10:41:21;;;;;;;144.77;137.57;;;6.00;99.90;;;;;;5020317;28;20095;-70
2023/04/11 10:43:47;;;;;;;212.88;202.57;;;6.10;99.90;;;;;;5025966;28;20045;-70
2023/04/11 10:46:24;;;;;;;167.70;160.65;;;6.20;99.90;;;;;;5002039;28;20037;-70
2023/04/11 10:49:00;;;;;;;145.73;138.70;;;6.30;99.90;;;;;;5040652;28;20053;-69
2023/04/11 10:51:28;;;;;;;473.80;432.45;;;6.50;99.90;;;;;;5017687;28;20072;-69
2023/04/11 10:53:58;;;;;;;150.75;143.50;;;6.70;99.90;;;;;;5024524;28;20037;-69
2023/04/11 10:56:41;;;;;;;82.70;78.78;;;6.60;99.90;;;;;;5021933;28;20115;-70
2023/04/11 10:59:30;;;;;;;98.30;93.70;;;6.50;99.90;;;;;;5012102;28;20151;-70
2023/04/11 11:02:00;;;;;;;99.80;94.80;;;6.50;99.90;;;;;;5019238;28;20595;-70
2023/04/11 11:04:38;;;;;;;132.65;125.90;;;6.40;99.90;;;;;;5025449;28;20036;-70
2023/04/11 11:07:06;;;;;;;81.57;77.43;;;6.50;99.90;;;;;;5021045;28;20681;-70
2023/04/11 11:09:33;;;;;;;107.68;102.47;;;6.50;99.90;;;;;;5029600;28;20055;-70
2023/04/11 11:12:05;;;;;;;77.35;73.53;;;6.50;99.90;;;;;;5022742;28;20588;-70
2023/04/11 11:14:31;;;;;;;116.20;109.57;;;6.50;99.90;;;;;;5063360;28;20391;-70
2023/04/11 11:16:56;;;;;;;273.55;251.85;;;6.60;99.90;;;;;;5083285;27;20047;-70
2023/04/11 11:19:22;;;;;;;51.72;48.75;;;6.70;99.90;;;;;;5089903;28;20092;-71
2023/04/11 11:21:50;;;;;;;50.42;47.78;;;6.90;99.90;;;;;;5071667;28;20051;-70
2023/04/11 11:24:26;;;;;;;83.93;79.72;;;7.30;99.90;;;;;;5060923;28;20383;-71
2023/04/11 11:26:56;;;;;;;74.22;70.50;;;7.70;99.90;;;;;;5068501;28;20119;-70
2023/04/11 11:29:36;;;;;;;118.80;113.50;;;7.80;99.90;;;;;;5088385;27;21147;-70
2023/04/11 11:32:02;;;;;;;98.78;94.43;;;7.80;99.90;;;;;;5082561;28;20888;-70
2023/04/11 11:34:30;;;;;;;128.32;122.70;;;7.70;99.90;;;;;;5072168;28;20047;-70
2023/04/11 11:36:56;;;;;;;117.13;111.88;;;7.60;99.90;;;;;;5071617;28;20090;-71
2023/04/11 11:39:22;;;;;;;273.08;256.05;;;7.60;99.90;;;;;;5089856;27;20285;-71
2023/04/11 11:41:49;;;;;;;111.45;106.00;;;7.60;99.90;;;;;;5084839;28;20093;-71
2023/04/11 11:44:22;;;;;;;161.82;153.48;;;7.60;99.90;;;;;;5119005;27;20043;-70
2023/04/11 11:47:08;;;;;;;113.75;108.65;;;7.60;99.90;;;;;;5090542;28;20044;-70
2023/04/11 11:49:50;;;;;;;328.35;307.17;;;7.80;99.90;;;;;;5086740;28;20031;-70
2023/04/11 11:52:39;;;;;;;211.60;201.55;;;8.00;99.90;;;;;;5087118;28;20040;-71
2023/04/11 11:55:18;;;;;;;177.15;167.13;;;8.50;99.90;;;;;;5086238;28;20088;-71
2023/04/11 11:57:45;;;;;;;165.10;157.88;;;8.90;99.90;;;;;;5072319;28;20047;-70
2023/04/11 12:00:11;;;;;;;281.80;268.65;;;9.40;99.90;;;;;;5087064;27;20313;-71
2023/04/11 12:02:38;;;;;;;288.15;271.48;;;9.90;99.90;;;;;;5088211;27;20537;-71
2023/04/11 12:05:05;;;;;;;178.13;169.77;;;10.40;99.90;;;;;;5089985;27;20024;-71
2023/04/11 12:07:36;;;;;;;104.55;99.63;;;10.60;99.90;;;;;;5105296;27;20402;-70
2023/04/11 12:10:08;;;;;;;282.23;263.83;;;10.80;99.90;;;;;;5088287;28;20050;-70
2023/04/11 12:12:35;;;;;;;147.30;139.60;;;10.80;99.90;;;;;;5104687;28;20379;-70
2023/04/11 12:15:02;;;;;;;154.98;146.90;;;10.40;99.90;;;;;;5089081;28;20059;-70
2023/04/11 12:17:34;;;;;;;216.80;204.35;;;10.10;99.90;;;;;;5071305;28;20044;-70
2023/04/11 12:20:01;;;;;;;234.00;222.23;;;10.10;99.90;;;;;;5087832;28;20043;-70
2023/04/11 12:22:26;;;;;;;224.75;209.40;;;10.30;99.90;;;;;;5104316;28;20134;-70
2023/04/11 12:25:02;;;;;;;123.00;116.43;;;10.70;99.90;;;;;;5095611;27;20163;-70
2023/04/11 12:27:27;;;;;;;271.98;206.10;;;11.00;99.90;;;;;;5089008;28;20035;-70